Time;durP1;ratioP1;P1;durP2;ratioP2;P2;SDS_P1;SDS_P2;PMS_P1;PMS_P2;Temp;Humidity;BMP_temperature;BMP_pressure;BME280_temperature;BME280_humidity;BME280_pressure;Samples;Min_cycle;Max_cycle;Signal;HPM_P1;HPM_P2
2021/12/26 00:02:12;;;;;;;6.38;2.90;;;2.00;99.90;;;;;;5030232;28;20324;-74
2021/12/26 00:04:38;;;;;;;4.15;2.85;;;2.10;99.90;;;;;;5030293;28;20185;-74
2021/12/26 00:07:05;;;;;;;4.32;2.97;;;2.10;99.90;;;;;;5029336;28;20170;-73
2021/12/26 00:09:31;;;;;;;5.25;2.35;;;2.10;99.90;;;;;;5030018;28;20197;-74
2021/12/26 00:11:58;;;;;;;4.28;2.72;;;2.10;99.90;;;;;;5030079;28;20205;-74
2021/12/26 00:14:24;;;;;;;4.68;3.05;;;2.00;99.90;;;;;;5029920;28;20193;-74
2021/12/26 00:16:51;;;;;;;6.57;3.08;;;2.00;99.90;;;;;;5030060;28;20567;-74
2021/12/26 00:19:16;;;;;;;4.85;3.13;;;2.10;99.90;;;;;;5029951;28;20176;-74
2021/12/26 00:21:43;;;;;;;3.97;2.30;;;2.10;99.90;;;;;;5029928;28;20555;-74
2021/12/26 00:24:09;;;;;;;3.78;2.40;;;2.10;99.90;;;;;;5029927;28;20173;-74
2021/12/26 00:26:37;;;;;;;4.07;2.72;;;2.10;99.90;;;;;;5029917;28;20197;-74
2021/12/26 00:29:04;;;;;;;2.80;2.20;;;2.10;99.90;;;;;;5029799;28;20157;-74
2021/12/26 00:31:30;;;;;;;2.13;1.67;;;2.00;99.90;;;;;;5029736;28;20760;-74
2021/12/26 00:33:57;;;;;;;3.22;2.15;;;2.00;99.90;;;;;;5029771;28;20190;-74
2021/12/26 00:36:23;;;;;;;3.45;2.33;;;2.00;99.90;;;;;;5029891;28;20154;-75
2021/12/26 00:38:48;;;;;;;3.55;2.20;;;1.90;99.90;;;;;;5028491;28;20166;-74
2021/12/26 00:41:15;;;;;;;4.22;2.92;;;1.90;99.90;;;;;;5011983;28;20204;-74
2021/12/26 00:43:41;;;;;;;3.67;2.60;;;1.90;99.90;;;;;;5029746;28;20257;-74
2021/12/26 00:46:07;;;;;;;4.03;3.15;;;1.90;99.90;;;;;;5029609;28;20162;-73
2021/12/26 00:48:33;;;;;;;3.13;2.40;;;1.90;99.90;;;;;;5029545;28;20705;-74
2021/12/26 00:50:59;;;;;;;3.70;2.75;;;1.90;99.90;;;;;;5029460;28;20166;-74
2021/12/26 00:53:25;;;;;;;3.55;2.42;;;1.90;99.90;;;;;;5029444;28;20245;-74
2021/12/26 00:55:51;;;;;;;4.78;2.58;;;1.90;99.90;;;;;;5029587;28;20197;-74
2021/12/26 00:58:18;;;;;;;3.80;2.97;;;1.80;99.90;;;;;;5029465;28;20162;-74
2021/12/26 01:00:47;;;;;;;4.55;2.85;;;1.80;99.90;;;;;;5029266;28;20785;-74
2021/12/26 01:03:14;;;;;;;4.97;2.95;;;1.80;99.90;;;;;;5029423;28;20158;-74
2021/12/26 01:05:43;;;;;;;4.53;2.53;;;1.80;99.90;;;;;;5029366;28;20658;-74
2021/12/26 01:08:12;;;;;;;3.33;2.47;;;1.70;99.90;;;;;;5029369;28;20220;-75
2021/12/26 01:10:48;;;;;;;2.67;1.80;;;1.80;99.90;;;;;;5029306;28;20162;-74
2021/12/26 01:13:21;;;;;;;4.43;2.22;;;1.60;99.90;;;;;;5029194;28;20251;-74
2021/12/26 01:15:49;;;;;;;2.53;2.17;;;1.60;99.90;;;;;;5029259;28;20196;-74
2021/12/26 01:18:17;;;;;;;3.53;2.45;;;1.60;99.90;;;;;;5029991;28;20150;-74
2021/12/26 01:23:11;;;;;;;3.78;2.50;;;1.60;99.90;;;;;;5033370;28;20245;-74
2021/12/26 01:25:37;;;;;;;5.15;2.90;;;1.50;99.90;;;;;;5033211;28;20154;-75
2021/12/26 01:28:04;;;;;;;4.28;2.38;;;1.50;99.90;;;;;;5033070;28;20181;-75
2021/12/26 01:30:30;;;;;;;5.63;3.05;;;1.50;99.90;;;;;;5033088;28;20313;-74
2021/12/26 01:32:55;;;;;;;5.50;3.10;;;1.50;99.90;;;;;;5015102;28;20210;-74
2021/12/26 01:35:22;;;;;;;5.18;3.03;;;1.40;99.90;;;;;;5033033;28;20165;-74
2021/12/26 01:37:47;;;;;;;3.70;2.40;;;1.40;99.90;;;;;;5033016;28;20216;-74
2021/12/26 01:40:15;;;;;;;5.22;2.88;;;1.40;99.90;;;;;;5033067;28;20186;-74
2021/12/26 01:42:41;;;;;;;4.57;3.42;;;1.40;99.90;;;;;;5032880;28;20219;-74
2021/12/26 01:45:07;;;;;;;4.65;2.70;;;1.40;99.90;;;;;;5032816;28;20233;-74
2021/12/26 01:47:33;;;;;;;4.78;2.88;;;1.40;99.90;;;;;;5032795;28;20157;-74
2021/12/26 01:49:59;;;;;;;5.97;2.70;;;1.40;99.90;;;;;;5032783;28;20162;-74
2021/12/26 01:52:25;;;;;;;5.20;3.22;;;1.30;99.90;;;;;;5032616;28;20701;-74
2021/12/26 01:55:01;;;;;;;4.82;2.78;;;1.30;99.90;;;;;;5032691;28;20193;-74
2021/12/26 01:57:27;;;;;;;4.15;2.63;;;1.30;99.90;;;;;;5015009;28;20200;-74
2021/12/26 01:59:53;;;;;;;4.45;2.65;;;1.50;99.90;;;;;;5032396;28;20217;-74
2021/12/26 02:02:21;;;;;;;4.80;2.45;;;1.50;99.90;;;;;;5032545;28;20194;-74
2021/12/26 02:04:47;;;;;;;3.30;3.00;;;1.40;99.90;;;;;;5032469;28;20174;-74
2021/12/26 02:07:13;;;;;;;4.60;2.83;;;1.40;99.90;;;;;;5032460;28;20619;-74
2021/12/26 02:09:40;;;;;;;6.22;3.30;;;1.30;99.90;;;;;;5032338;28;20174;-74
2021/12/26 02:12:07;;;;;;;3.47;2.47;;;1.40;99.90;;;;;;5032126;28;20200;-75
2021/12/26 02:14:33;;;;;;;6.28;2.67;;;1.40;99.90;;;;;;5032471;28;20229;-74
2021/12/26 02:17:00;;;;;;;5.10;3.45;;;1.40;99.90;;;;;;5032265;28;20249;-75
2021/12/26 02:19:26;;;;;;;4.97;3.10;;;1.50;99.90;;;;;;5032157;28;20162;-74
2021/12/26 02:24:30;;;;;;;5.13;3.70;;;1.30;99.90;;;;;;5032272;28;20162;-75
2021/12/26 02:29:45;;;;;;;5.03;3.55;;;1.30;99.90;;;;;;5031428;28;20242;-75
2021/12/26 02:32:11;;;;;;;5.18;2.60;;;1.40;99.90;;;;;;5031774;28;20200;-75
2021/12/26 02:34:37;;;;;;;6.22;3.35;;;1.30;99.90;;;;;;5031959;28;20706;-75
2021/12/26 02:37:03;;;;;;;4.88;3.45;;;1.30;99.90;;;;;;5031985;28;20165;-75
2021/12/26 02:39:32;;;;;;;5.93;3.33;;;1.20;99.90;;;;;;5031905;28;20169;-75
2021/12/26 02:42:00;;;;;;;5.93;3.47;;;1.30;99.90;;;;;;5031744;28;20261;-75
2021/12/26 02:44:26;;;;;;;5.03;3.05;;;1.20;99.90;;;;;;5031813;28;20197;-76
2021/12/26 02:46:52;;;;;;;4.70;3.15;;;1.20;99.90;;;;;;5031673;28;20178;-75
2021/12/26 02:49:27;;;;;;;5.15;3.10;;;1.20;99.90;;;;;;5031690;28;20166;-75
2021/12/26 02:51:53;;;;;;;6.80;3.75;;;1.20;99.90;;;;;;5031652;28;20192;-75
2021/12/26 02:54:24;;;;;;;6.72;3.80;;;1.10;99.90;;;;;;5013861;28;20206;-75
2021/12/26 02:56:50;;;;;;;5.28;3.05;;;1.10;99.90;;;;;;5031566;28;20177;-75
2021/12/26 02:59:16;;;;;;;6.72;4.03;;;1.20;99.90;;;;;;5017681;28;20217;-75
2021/12/26 03:01:42;;;;;;;5.15;3.45;;;1.20;99.90;;;;;;5049963;28;20284;-75
2021/12/26 03:04:09;;;;;;;6.13;3.85;;;1.20;99.90;;;;;;5051356;28;20162;-75
2021/12/26 03:09:09;;;;;;;6.13;3.45;;;1.20;99.90;;;;;;5055993;28;20191;-75
2021/12/26 03:11:38;;;;;;;5.95;3.25;;;1.20;99.90;;;;;;5069272;28;20192;-76
2021/12/26 03:14:05;;;;;;;5.78;3.40;;;1.20;99.90;;;;;;5051048;28;20192;-76
2021/12/26 03:16:31;;;;;;;5.13;3.25;;;1.20;99.90;;;;;;5049732;28;20257;-75
2021/12/26 03:19:00;;;;;;;5.72;3.88;;;1.10;99.90;;;;;;5050998;28;20166;-76
2021/12/26 03:21:26;;;;;;;6.90;3.88;;;1.10;99.90;;;;;;5051002;28;20193;-75
2021/12/26 03:23:52;;;;;;;5.78;3.40;;;1.10;99.90;;;;;;5050941;28;20192;-75
2021/12/26 03:26:18;;;;;;;5.18;3.60;;;1.10;99.90;;;;;;5050862;28;20165;-75
2021/12/26 03:28:44;;;;;;;5.97;3.67;;;1.20;99.90;;;;;;5050886;28;20209;-75
2021/12/26 03:31:11;;;;;;;5.93;3.78;;;1.30;99.90;;;;;;5050564;28;20193;-75
2021/12/26 03:33:37;;;;;;;6.45;3.60;;;1.20;99.90;;;;;;5050618;28;20193;-75
2021/12/26 03:36:03;;;;;;;6.82;4.80;;;1.10;99.90;;;;;;5050555;28;20726;-75
2021/12/26 03:38:29;;;;;;;5.75;3.47;;;1.20;99.90;;;;;;5050484;28;20177;-75
2021/12/26 03:40:56;;;;;;;6.60;3.85;;;1.20;99.90;;;;;;5050431;28;20158;-75
2021/12/26 03:43:23;;;;;;;6.13;3.50;;;1.20;99.90;;;;;;5050330;28;20162;-76
2021/12/26 03:45:51;;;;;;;6.63;3.88;;;1.10;99.90;;;;;;5048922;28;20173;-75
2021/12/26 03:48:19;;;;;;;4.72;3.20;;;1.10;99.90;;;;;;5049107;28;20622;-76
2021/12/26 03:50:46;;;;;;;8.00;4.50;;;1.20;99.90;;;;;;5050169;28;20189;-76
2021/12/26 03:53:12;;;;;;;8.23;4.25;;;1.20;99.90;;;;;;5050223;28;20161;-76
2021/12/26 03:55:39;;;;;;;6.38;3.75;;;1.20;99.90;;;;;;5050198;28;20212;-77
2021/12/26 03:58:05;;;;;;;8.15;4.20;;;1.10;99.90;;;;;;5050234;28;20149;-76
2021/12/26 04:00:32;;;;;;;7.22;3.72;;;1.10;99.90;;;;;;5036049;28;20217;-76
2021/12/26 04:02:58;;;;;;;7.35;3.72;;;1.10;99.90;;;;;;5030193;28;20257;-76
2021/12/26 04:05:24;;;;;;;7.53;3.90;;;1.10;99.90;;;;;;5030145;28;20165;-76
2021/12/26 04:07:50;;;;;;;6.78;4.10;;;1.10;99.90;;;;;;5030201;28;20151;-76
2021/12/26 04:10:18;;;;;;;8.75;5.53;;;1.00;99.90;;;;;;5030035;28;20169;-76
2021/12/26 04:12:48;;;;;;;6.47;4.05;;;1.00;99.90;;;;;;5029839;28;20194;-75
2021/12/26 04:15:17;;;;;;;7.68;3.80;;;1.00;99.90;;;;;;5029872;28;20184;-74
2021/12/26 04:17:43;;;;;;;7.18;4.30;;;1.00;99.90;;;;;;5029881;28;20189;-77
2021/12/26 04:20:11;;;;;;;6.05;3.58;;;1.00;99.90;;;;;;5029797;28;20166;-76
2021/12/26 04:22:37;;;;;;;7.78;4.65;;;1.00;99.90;;;;;;5029871;28;20193;-76
2021/12/26 04:25:05;;;;;;;6.75;4.93;;;1.00;99.90;;;;;;5029826;28;20157;-76
2021/12/26 04:27:32;;;;;;;8.60;4.50;;;0.90;99.90;;;;;;5029767;28;20163;-76
2021/12/26 04:29:58;;;;;;;8.93;4.63;;;0.90;99.90;;;;;;5012057;28;20185;-76
2021/12/26 04:32:24;;;;;;;7.20;4.53;;;0.80;99.90;;;;;;5029510;28;20216;-76
2021/12/26 04:34:50;;;;;;;8.88;4.68;;;0.80;99.90;;;;;;5011921;28;20198;-76
2021/12/26 04:37:16;;;;;;;7.00;4.28;;;0.80;99.90;;;;;;5029650;28;20164;-75
2021/12/26 04:39:42;;;;;;;6.72;3.65;;;0.80;99.90;;;;;;5029531;28;20197;-75
2021/12/26 04:42:08;;;;;;;6.05;4.03;;;0.80;99.90;;;;;;5029483;28;20182;-76
2021/12/26 04:44:34;;;;;;;9.05;4.20;;;0.90;99.90;;;;;;5029386;28;20162;-75
2021/12/26 04:47:00;;;;;;;7.55;4.15;;;0.90;99.90;;;;;;5029429;28;20229;-75
2021/12/26 04:49:26;;;;;;;9.98;5.28;;;1.00;99.90;;;;;;5029571;28;20173;-76
2021/12/26 04:51:52;;;;;;;9.80;5.00;;;0.90;99.90;;;;;;5029343;28;20209;-76
2021/12/26 04:54:18;;;;;;;8.88;4.55;;;0.90;99.90;;;;;;5028902;28;20190;-76
2021/12/26 04:56:44;;;;;;;7.00;4.35;;;1.00;99.90;;;;;;5029342;28;20218;-75
2021/12/26 04:59:11;;;;;;;9.68;5.22;;;1.00;99.90;;;;;;5029087;28;20280;-75
2021/12/26 05:01:37;;;;;;;9.20;4.65;;;1.00;99.90;;;;;;5029176;28;20189;-75
2021/12/26 05:04:04;;;;;;;7.30;4.40;;;1.10;99.90;;;;;;5029309;28;20186;-76
2021/12/26 05:06:30;;;;;;;7.82;4.30;;;1.00;99.90;;;;;;5029151;28;20556;-75
2021/12/26 05:08:56;;;;;;;8.63;4.50;;;1.00;99.90;;;;;;5029167;28;20226;-74
2021/12/26 05:11:22;;;;;;;8.98;4.75;;;1.00;99.90;;;;;;5011406;28;20205;-76
2021/12/26 05:13:48;;;;;;;8.07;4.60;;;0.90;99.90;;;;;;5028926;28;20213;-76
2021/12/26 05:16:14;;;;;;;8.15;4.07;;;0.90;99.90;;;;;;5029184;28;20158;-75
2021/12/26 05:18:39;;;;;;;7.22;4.68;;;0.90;99.90;;;;;;5029098;28;20607;-75
2021/12/26 05:21:06;;;;;;;8.32;4.72;;;0.90;99.90;;;;;;5028930;28;20194;-75
2021/12/26 05:23:32;;;;;;;8.13;4.35;;;0.90;99.90;;;;;;5029066;28;20176;-75
2021/12/26 05:25:58;;;;;;;10.27;4.80;;;0.90;99.90;;;;;;5029209;28;20166;-74
2021/12/26 05:28:23;;;;;;;6.95;4.28;;;1.00;99.90;;;;;;5029040;28;20166;-74
2021/12/26 05:30:49;;;;;;;7.03;4.35;;;0.90;99.90;;;;;;5028821;28;20189;-75
2021/12/26 05:33:15;;;;;;;7.78;4.40;;;0.90;99.90;;;;;;5028860;28;20161;-73
2021/12/26 05:35:41;;;;;;;9.25;5.57;;;0.90;99.90;;;;;;5028869;28;20178;-75
2021/12/26 05:38:08;;;;;;;9.60;4.65;;;0.90;99.90;;;;;;5029039;28;20155;-75
2021/12/26 05:40:34;;;;;;;8.23;4.97;;;0.90;99.90;;;;;;5029004;28;20162;-74
2021/12/26 05:43:00;;;;;;;11.82;5.07;;;0.90;99.90;;;;;;5011074;28;20221;-75
2021/12/26 05:45:26;;;;;;;10.70;4.60;;;0.90;99.90;;;;;;5028849;28;20155;-75
2021/12/26 05:47:52;;;;;;;10.57;5.82;;;0.90;99.90;;;;;;5028758;28;20739;-74
2021/12/26 05:50:20;;;;;;;8.30;3.75;;;1.00;99.90;;;;;;5028896;28;20165;-74
2021/12/26 05:52:48;;;;;;;7.70;4.57;;;0.90;99.90;;;;;;5011047;28;20208;-74
2021/12/26 05:55:14;;;;;;;10.57;4.50;;;0.90;99.90;;;;;;5028705;28;20197;-75
2021/12/26 05:57:41;;;;;;;11.27;5.43;;;0.90;99.90;;;;;;5028644;28;20167;-76
2021/12/26 06:00:12;;;;;;;9.48;4.95;;;1.00;99.90;;;;;;5028609;28;20248;-75
2021/12/26 06:02:38;;;;;;;10.65;4.60;;;0.90;99.90;;;;;;5028647;28;20193;-74
2021/12/26 06:05:04;;;;;;;9.68;5.07;;;0.90;99.90;;;;;;5029076;28;20607;-73
2021/12/26 06:07:30;;;;;;;8.80;4.28;;;0.90;99.90;;;;;;5032278;28;20185;-76
2021/12/26 06:09:56;;;;;;;10.40;5.72;;;0.90;99.90;;;;;;5032206;28;20173;-75
2021/12/26 06:12:22;;;;;;;11.15;5.30;;;0.90;99.90;;;;;;5032033;28;20201;-75
2021/12/26 06:14:49;;;;;;;8.60;4.32;;;0.90;99.90;;;;;;5032080;28;20205;-73
2021/12/26 06:17:14;;;;;;;11.25;5.72;;;0.90;99.90;;;;;;5032163;28;20162;-74
2021/12/26 06:19:40;;;;;;;10.20;5.07;;;0.90;99.90;;;;;;5032109;28;20174;-76
2021/12/26 06:22:07;;;;;;;7.20;4.95;;;0.90;99.90;;;;;;5014247;28;20201;-77
2021/12/26 06:24:34;;;;;;;9.40;5.18;;;0.90;99.90;;;;;;5031998;28;20619;-74
2021/12/26 06:27:00;;;;;;;10.45;6.15;;;0.90;99.90;;;;;;5014450;28;20670;-76
2021/12/26 06:29:26;;;;;;;8.70;4.55;;;0.90;99.90;;;;;;5031932;28;20164;-76
2021/12/26 06:31:52;;;;;;;10.73;5.78;;;0.90;99.90;;;;;;5031824;28;20667;-76
2021/12/26 06:34:17;;;;;;;10.65;6.13;;;0.90;99.90;;;;;;5031860;28;20186;-76
2021/12/26 06:36:43;;;;;;;9.73;5.18;;;1.00;99.90;;;;;;5031806;28;20193;-76
2021/12/26 06:39:09;;;;;;;9.32;4.13;;;0.90;99.90;;;;;;5014165;28;20170;-76
2021/12/26 06:41:38;;;;;;;12.07;5.15;;;0.90;99.90;;;;;;5014007;28;20724;-76
2021/12/26 06:44:08;;;;;;;10.30;5.25;;;1.00;99.90;;;;;;5013825;28;20184;-76
2021/12/26 06:46:36;;;;;;;10.25;5.38;;;0.90;99.90;;;;;;5031624;28;20158;-76
2021/12/26 06:49:04;;;;;;;9.13;5.35;;;0.90;99.90;;;;;;5031619;28;20177;-76
2021/12/26 06:51:31;;;;;;;14.48;6.35;;;0.90;99.90;;;;;;5031496;28;20582;-74
2021/12/26 06:53:57;;;;;;;9.20;5.47;;;0.90;99.90;;;;;;5031488;28;20305;-74
2021/12/26 06:56:23;;;;;;;10.40;5.32;;;0.90;99.90;;;;;;5031453;28;20620;-73
2021/12/26 06:58:49;;;;;;;16.10;6.15;;;0.90;99.90;;;;;;5031304;28;20216;-75
2021/12/26 07:01:15;;;;;;;10.55;5.75;;;0.90;99.90;;;;;;5031030;28;20225;-74
2021/12/26 07:03:41;;;;;;;12.90;5.90;;;0.90;99.90;;;;;;5031332;28;20710;-74
2021/12/26 07:06:06;;;;;;;16.20;6.38;;;1.00;99.90;;;;;;5031332;28;20240;-74
2021/12/26 07:08:32;;;;;;;11.25;5.88;;;1.00;99.90;;;;;;5013706;28;20177;-75
2021/12/26 07:10:58;;;;;;;12.95;6.93;;;1.00;99.90;;;;;;5030961;28;20170;-75
2021/12/26 07:13:25;;;;;;;11.65;6.13;;;1.10;99.90;;;;;;5013305;28;20216;-74
2021/12/26 07:15:51;;;;;;;12.73;6.00;;;1.00;99.90;;;;;;5030666;28;20154;-75
2021/12/26 07:18:17;;;;;;;14.73;6.80;;;1.10;99.90;;;;;;5013382;28;20627;-74
2021/12/26 07:20:43;;;;;;;10.80;6.40;;;1.00;99.90;;;;;;5030831;28;20170;-74
2021/12/26 07:23:09;;;;;;;13.77;7.28;;;1.00;99.90;;;;;;5030938;28;20222;-75
2021/12/26 07:25:35;;;;;;;12.68;7.10;;;1.10;99.90;;;;;;5030888;28;20154;-75
2021/12/26 07:28:01;;;;;;;13.15;6.32;;;1.10;99.90;;;;;;5030839;28;20165;-74
2021/12/26 07:30:28;;;;;;;15.63;7.63;;;1.10;99.90;;;;;;5030764;28;20154;-74
2021/12/26 07:32:54;;;;;;;11.32;6.68;;;1.10;99.90;;;;;;5030670;28;20190;-74
2021/12/26 07:35:20;;;;;;;13.57;6.40;;;1.20;99.90;;;;;;5013084;28;20201;-74
2021/12/26 07:37:46;;;;;;;11.93;7.03;;;1.20;99.90;;;;;;5012999;28;20163;-74
2021/12/26 07:40:12;;;;;;;11.27;7.38;;;1.30;99.90;;;;;;5030681;28;20259;-76
2021/12/26 07:42:40;;;;;;;12.63;7.70;;;1.20;99.90;;;;;;5030532;28;20193;-76
2021/12/26 07:45:07;;;;;;;13.38;7.05;;;1.30;99.90;;;;;;5030543;28;20214;-76
2021/12/26 07:47:33;;;;;;;12.60;7.75;;;1.30;99.90;;;;;;5030518;28;20167;-76
2021/12/26 07:49:59;;;;;;;14.77;7.32;;;1.40;99.90;;;;;;5030429;28;20165;-76
2021/12/26 07:52:29;;;;;;;10.77;6.32;;;1.40;99.90;;;;;;5030367;28;20761;-76
2021/12/26 07:54:55;;;;;;;11.63;6.22;;;1.40;99.90;;;;;;5030269;28;20209;-75
2021/12/26 07:57:21;;;;;;;12.43;7.75;;;1.30;99.90;;;;;;5030259;28;20630;-76
2021/12/26 07:59:47;;;;;;;10.38;7.00;;;1.30;99.90;;;;;;5024551;28;20231;-76
2021/12/26 08:02:18;;;;;;;11.82;6.70;;;1.30;99.90;;;;;;5049927;28;20252;-74
2021/12/26 08:04:46;;;;;;;13.55;7.03;;;1.30;99.90;;;;;;5050069;28;20165;-76
2021/12/26 08:07:12;;;;;;;12.23;6.47;;;1.20;99.90;;;;;;5050005;28;20165;-76
2021/12/26 08:09:38;;;;;;;12.27;7.15;;;1.20;99.90;;;;;;5058774;28;20537;-75
2021/12/26 08:12:05;;;;;;;12.82;7.00;;;1.30;99.90;;;;;;5064032;28;20219;-76
2021/12/26 08:14:31;;;;;;;12.40;7.13;;;1.30;99.90;;;;;;5049630;28;20216;-75
2021/12/26 08:16:57;;;;;;;14.82;6.57;;;1.30;99.90;;;;;;5049875;28;20158;-75
2021/12/26 08:19:23;;;;;;;17.45;6.65;;;1.20;99.90;;;;;;5049696;28;20174;-76
2021/12/26 08:21:52;;;;;;;9.30;6.00;;;1.30;99.90;;;;;;5049723;28;20235;-75
2021/12/26 08:24:19;;;;;;;16.63;7.13;;;1.30;99.90;;;;;;5049672;28;20158;-76
2021/12/26 08:26:49;;;;;;;21.17;7.95;;;1.40;99.90;;;;;;5049612;28;20168;-76
2021/12/26 08:29:23;;;;;;;15.45;7.47;;;1.30;99.90;;;;;;5048885;28;20162;-76
2021/12/26 08:31:56;;;;;;;14.13;6.57;;;1.40;99.90;;;;;;5049500;28;20193;-75
2021/12/26 08:34:23;;;;;;;11.32;7.13;;;1.40;99.90;;;;;;5049416;28;20219;-75
2021/12/26 08:36:58;;;;;;;14.30;7.82;;;1.40;99.90;;;;;;5049422;28;20162;-76
2021/12/26 08:39:25;;;;;;;13.90;7.25;;;1.40;99.90;;;;;;5049310;28;20160;-76
2021/12/26 08:41:51;;;;;;;16.45;7.70;;;1.40;99.90;;;;;;5049220;28;20214;-76
2021/12/26 08:44:17;;;;;;;17.05;7.90;;;1.40;99.90;;;;;;5049235;28;20169;-75
2021/12/26 08:46:43;;;;;;;19.55;7.20;;;1.40;99.90;;;;;;5047927;28;20265;-76
2021/12/26 08:49:10;;;;;;;14.70;7.00;;;1.50;99.90;;;;;;5049120;28;20170;-76
2021/12/26 08:51:36;;;;;;;15.02;7.45;;;1.50;99.90;;;;;;5049118;28;20196;-76
2021/12/26 08:54:02;;;;;;;15.45;7.13;;;1.50;99.90;;;;;;5049096;28;20249;-75
2021/12/26 08:56:29;;;;;;;15.32;7.13;;;1.60;99.90;;;;;;5049120;28;20172;-75
2021/12/26 08:58:55;;;;;;;16.02;7.57;;;1.70;99.90;;;;;;5046978;28;20172;-76
2021/12/26 09:01:22;;;;;;;16.45;7.15;;;1.60;99.90;;;;;;5029321;28;20198;-76
2021/12/26 09:03:50;;;;;;;13.23;7.05;;;1.70;99.90;;;;;;5029315;28;20193;-75
2021/12/26 09:06:16;;;;;;;17.30;8.38;;;1.70;99.90;;;;;;5029227;28;20158;-75
2021/12/26 09:08:42;;;;;;;13.20;6.65;;;1.60;99.90;;;;;;5029160;28;20274;-76
2021/12/26 09:11:08;;;;;;;17.40;8.05;;;1.60;99.90;;;;;;5029148;28;20194;-76
2021/12/26 09:13:35;;;;;;;13.07;6.60;;;1.70;99.90;;;;;;4994933;28;20209;-76
2021/12/26 09:16:02;;;;;;;12.82;7.07;;;1.80;99.90;;;;;;5009519;28;20155;-76
2021/12/26 09:18:28;;;;;;;12.75;7.13;;;1.90;99.90;;;;;;5009449;28;20178;-76
2021/12/26 09:20:54;;;;;;;10.70;6.03;;;2.00;99.90;;;;;;5009333;28;20658;-76
2021/12/26 09:23:20;;;;;;;15.50;6.03;;;2.00;99.90;;;;;;4992005;28;20217;-76
2021/12/26 09:25:46;;;;;;;12.82;6.45;;;2.00;99.90;;;;;;5009423;28;20159;-76
2021/12/26 09:28:12;;;;;;;11.63;7.55;;;2.00;99.90;;;;;;5009391;28;20166;-76
2021/12/26 09:30:38;;;;;;;13.88;6.05;;;1.90;99.90;;;;;;5009301;28;20158;-76
2021/12/26 09:33:04;;;;;;;13.05;6.45;;;2.00;99.90;;;;;;4991725;28;20198;-75
2021/12/26 09:35:31;;;;;;;12.40;6.88;;;2.20;99.90;;;;;;5009235;28;20187;-75
2021/12/26 09:37:57;;;;;;;12.05;6.35;;;2.10;99.90;;;;;;5009329;28;20159;-76
2021/12/26 09:40:24;;;;;;;11.70;6.53;;;2.00;99.90;;;;;;5011771;28;20182;-76
2021/12/26 09:42:50;;;;;;;11.50;6.45;;;1.90;99.90;;;;;;5012950;28;20197;-76
2021/12/26 09:45:18;;;;;;;15.23;7.15;;;2.00;99.90;;;;;;5013096;28;20171;-76
2021/12/26 09:47:45;;;;;;;18.02;8.70;;;2.00;99.90;;;;;;5012989;28;20179;-75
2021/12/26 09:50:13;;;;;;;26.75;12.85;;;2.00;99.90;;;;;;4995285;28;20185;-75
2021/12/26 09:52:44;;;;;;;11.60;6.65;;;2.10;99.90;;;;;;5012873;28;20214;-76
2021/12/26 09:55:12;;;;;;;13.30;6.30;;;2.20;99.90;;;;;;5012498;28;20193;-76
2021/12/26 09:57:38;;;;;;;15.55;7.88;;;2.10;99.90;;;;;;5012963;28;20174;-76
2021/12/26 10:00:16;;;;;;;14.10;7.68;;;2.10;99.90;;;;;;5012591;28;20215;-75
2021/12/26 10:02:42;;;;;;;16.10;8.82;;;2.10;99.90;;;;;;5012726;28;20190;-75
2021/12/26 10:05:08;;;;;;;16.17;6.57;;;2.20;99.90;;;;;;5012655;28;20254;-76
2021/12/26 10:07:35;;;;;;;16.20;8.45;;;2.20;99.90;;;;;;5012729;28;20226;-75
2021/12/26 10:10:06;;;;;;;13.25;7.80;;;2.30;99.90;;;;;;5024353;28;20189;-75
2021/12/26 10:12:40;;;;;;;9.32;5.70;;;2.40;99.90;;;;;;5031884;28;20223;-75
2021/12/26 10:15:06;;;;;;;11.82;7.03;;;2.40;99.90;;;;;;5014448;28;20277;-75
2021/12/26 10:17:32;;;;;;;14.82;6.68;;;2.50;99.90;;;;;;5032083;28;20161;-75
2021/12/26 10:20:06;;;;;;;12.43;6.32;;;2.40;99.90;;;;;;5031871;28;20170;-75
2021/12/26 10:22:33;;;;;;;11.93;6.30;;;2.50;99.90;;;;;;5031988;28;20189;-75
2021/12/26 10:25:07;;;;;;;10.88;5.85;;;2.40;99.90;;;;;;5031961;28;20166;-75
2021/12/26 10:27:33;;;;;;;10.82;6.97;;;2.50;99.90;;;;;;5014283;28;20224;-75
2021/12/26 10:30:04;;;;;;;11.40;5.95;;;2.50;99.90;;;;;;5014133;28;20178;-75
2021/12/26 10:32:37;;;;;;;8.30;5.45;;;2.40;99.90;;;;;;5031689;28;20198;-75
2021/12/26 10:35:08;;;;;;;10.45;5.88;;;2.50;99.90;;;;;;5031671;28;20201;-75
2021/12/26 10:37:47;;;;;;;9.05;4.82;;;2.50;99.90;;;;;;5031857;28;20217;-76
2021/12/26 10:40:17;;;;;;;8.07;5.13;;;2.40;99.90;;;;;;5031680;28;20154;-75
2021/12/26 10:42:55;;;;;;;10.85;5.63;;;2.40;99.90;;;;;;5031614;28;20193;-75
2021/12/26 10:45:25;;;;;;;10.35;5.72;;;2.40;99.90;;;;;;5031623;28;20162;-75
2021/12/26 10:47:54;;;;;;;13.18;4.90;;;2.60;99.90;;;;;;5031542;28;20193;-75
2021/12/26 10:50:23;;;;;;;8.68;4.88;;;2.70;99.90;;;;;;5031494;28;20169;-75
2021/12/26 10:52:59;;;;;;;11.57;6.15;;;2.80;99.90;;;;;;5030818;28;20255;-75
2021/12/26 10:55:37;;;;;;;10.00;5.68;;;2.70;99.90;;;;;;5031138;28;20220;-75
2021/12/26 10:58:09;;;;;;;9.38;5.53;;;2.90;99.90;;;;;;5031283;28;20169;-75
2021/12/26 11:00:40;;;;;;;10.35;6.30;;;2.80;99.90;;;;;;5031149;28;20284;-75
2021/12/26 11:03:10;;;;;;;9.68;6.20;;;2.90;99.90;;;;;;5031589;28;20280;-75
2021/12/26 11:05:43;;;;;;;11.75;5.55;;;2.90;99.90;;;;;;5031244;28;20158;-75
2021/12/26 11:08:12;;;;;;;14.38;6.25;;;2.80;99.90;;;;;;5031130;28;20170;-76
2021/12/26 11:10:45;;;;;;;8.95;5.38;;;2.70;99.90;;;;;;5030958;28;20176;-75
2021/12/26 11:13:21;;;;;;;8.60;4.88;;;2.60;99.90;;;;;;5030778;28;20236;-75
2021/12/26 11:15:48;;;;;;;9.23;5.63;;;2.70;99.90;;;;;;5030901;28;20157;-75
2021/12/26 11:18:18;;;;;;;9.95;6.07;;;2.70;99.90;;;;;;5013288;28;20166;-75
2021/12/26 11:20:45;;;;;;;10.73;6.35;;;2.70;99.90;;;;;;5030824;28;20194;-75
2021/12/26 11:23:23;;;;;;;8.57;5.82;;;2.60;99.90;;;;;;5030885;28;20189;-75
2021/12/26 11:25:50;;;;;;;8.90;5.60;;;2.60;99.90;;;;;;5030930;28;20166;-75
2021/12/26 11:28:26;;;;;;;9.63;5.60;;;2.60;99.90;;;;;;5030638;28;20185;-75
2021/12/26 11:30:58;;;;;;;10.48;5.60;;;2.60;99.90;;;;;;5030779;28;20154;-75
2021/12/26 11:33:24;;;;;;;10.50;5.85;;;2.70;99.90;;;;;;5030629;28;20177;-75
2021/12/26 11:35:54;;;;;;;9.98;5.25;;;2.60;99.90;;;;;;5030505;28;20150;-75
2021/12/26 11:38:22;;;;;;;11.07;5.47;;;2.80;99.90;;;;;;5030610;28;20196;-75
2021/12/26 11:40:50;;;;;;;14.27;7.15;;;2.60;99.90;;;;;;5030470;28;20182;-75
2021/12/26 11:43:44;;;;;;;10.40;5.60;;;2.70;99.90;;;;;;5030489;28;20165;-75
2021/12/26 11:46:47;;;;;;;12.65;6.18;;;2.60;99.90;;;;;;5030585;28;20177;-75
2021/12/26 11:49:23;;;;;;;9.48;5.32;;;2.70;99.90;;;;;;5012680;28;20208;-75
2021/12/26 11:52:19;;;;;;;9.63;5.63;;;2.60;99.90;;;;;;5030431;28;20264;-75
2021/12/26 11:54:48;;;;;;;9.32;5.70;;;2.70;99.90;;;;;;5030137;28;20224;-75
2021/12/26 11:57:36;;;;;;;12.82;5.88;;;2.60;99.90;;;;;;5030270;28;20238;-75
2021/12/26 12:00:10;;;;;;;9.73;6.22;;;2.60;99.90;;;;;;5028518;28;20228;-75
2021/12/26 12:02:37;;;;;;;12.75;5.95;;;2.50;99.90;;;;;;5049245;28;20197;-75
2021/12/26 12:05:14;;;;;;;13.65;6.00;;;2.40;99.90;;;;;;5049744;28;20176;-75
2021/12/26 12:07:59;;;;;;;12.13;6.20;;;2.50;99.90;;;;;;5049973;28;20169;-75
2021/12/26 12:10:31;;;;;;;9.68;5.93;;;2.30;99.90;;;;;;5064992;28;20225;-75
2021/12/26 12:12:57;;;;;;;11.48;5.95;;;2.30;99.90;;;;;;5058137;28;20228;-75
2021/12/26 12:15:50;;;;;;;8.90;4.88;;;2.30;99.90;;;;;;5049543;28;20220;-75
2021/12/26 12:18:21;;;;;;;11.27;5.70;;;2.20;99.90;;;;;;5049879;28;20224;-75
2021/12/26 12:21:06;;;;;;;9.30;5.32;;;2.20;99.90;;;;;;5044850;28;20237;-75
2021/12/26 12:23:33;;;;;;;9.45;5.35;;;2.40;99.90;;;;;;5029815;28;20150;-75
2021/12/26 12:25:59;;;;;;;13.65;7.00;;;2.40;99.90;;;;;;5029751;28;20162;-76
2021/12/26 12:28:29;;;;;;;10.38;5.93;;;2.30;99.90;;;;;;5029724;28;20655;-75
2021/12/26 12:31:07;;;;;;;10.93;5.85;;;2.30;99.90;;;;;;5029698;28;20161;-75
2021/12/26 12:33:34;;;;;;;10.77;5.28;;;2.30;99.90;;;;;;5029535;28;20182;-75
2021/12/26 12:36:23;;;;;;;10.05;5.35;;;2.30;99.90;;;;;;5029569;28;20185;-75
2021/12/26 12:38:50;;;;;;;13.90;5.85;;;2.30;99.90;;;;;;5029548;28;20161;-75
2021/12/26 12:41:28;;;;;;;12.32;6.38;;;2.30;99.90;;;;;;5029362;28;20202;-75
2021/12/26 12:43:55;;;;;;;10.38;5.65;;;2.30;99.90;;;;;;5029436;28;20172;-75
2021/12/26 12:46:21;;;;;;;10.32;6.00;;;2.30;99.90;;;;;;5029626;28;20187;-75
2021/12/26 12:48:59;;;;;;;16.15;6.68;;;2.30;99.90;;;;;;5029389;28;20216;-75
2021/12/26 12:51:30;;;;;;;11.50;6.22;;;2.30;99.90;;;;;;5029271;28;20202;-75
2021/12/26 12:54:30;;;;;;;13.48;5.75;;;2.40;99.90;;;;;;5029342;28;20269;-75
2021/12/26 12:57:00;;;;;;;10.52;5.60;;;2.40;99.90;;;;;;5029259;28;20170;-75
2021/12/26 12:59:28;;;;;;;9.65;5.50;;;2.50;99.90;;;;;;5024354;28;20245;-75
2021/12/26 13:01:58;;;;;;;10.95;6.32;;;2.50;99.90;;;;;;5009548;28;20193;-75
2021/12/26 13:04:27;;;;;;;13.30;7.30;;;2.50;99.90;;;;;;4992114;28;20202;-75
2021/12/26 13:06:58;;;;;;;12.80;6.68;;;2.40;99.90;;;;;;5009683;28;20163;-75
2021/12/26 13:09:26;;;;;;;15.23;6.97;;;2.40;99.90;;;;;;5016386;28;20169;-75